sensor_id;sensor_type;location;lat;lon;timestamp;temperature;humidity
52979;DHT22;51106;53.186;6.598;2022-08-24T00:01:49;19.50;99.90
52979;DHT22;51106;53.186;6.598;2022-08-24T00:03:52;19.50;99.90
52979;DHT22;51106;53.186;6.598;2022-08-24T00:05:56;19.40;99.90
52979;DHT22;51106;53.186;6.598;2022-08-24T00:07:58;19.40;99.90
52979;DHT22;51106;53.186;6.598;2022-08-24T00:10:00;19.40;99.90
52979;DHT22;51106;53.186;6.598;2022-08-24T00:12:03;19.40;99.90
52979;DHT22;51106;53.186;6.598;2022-08-24T00:14:05;19.30;99.90
52979;DHT22;51106;53.186;6.598;2022-08-24T00:16:08;19.30;99.90
52979;DHT22;51106;53.186;6.598;2022-08-24T00:18:12;19.30;99.90
52979;DHT22;51106;53.186;6.598;2022-08-24T00:20:26;19.20;99.90
52979;DHT22;51106;53.186;6.598;2022-08-24T00:22:52;19.20;99.90
52979;DHT22;51106;53.186;6.598;2022-08-24T00:25:35;19.10;99.90
52979;DHT22;51106;53.186;6.598;2022-08-24T00:27:39;19.10;99.90
52979;DHT22;51106;53.186;6.598;2022-08-24T00:29:42;19.10;99.90
52979;DHT22;51106;53.186;6.598;2022-08-24T00:31:44;19.00;99.90
52979;DHT22;51106;53.186;6.598;2022-08-24T00:33:46;19.00;99.90
52979;DHT22;51106;53.186;6.598;2022-08-24T00:35:48;19.10;99.90
52979;DHT22;51106;53.186;6.598;2022-08-24T00:37:55;19.00;99.90
52979;DHT22;51106;53.186;6.598;2022-08-24T00:40:12;19.00;99.90
52979;DHT22;51106;53.186;6.598;2022-08-24T00:42:15;19.00;99.90
52979;DHT22;51106;53.186;6.598;2022-08-24T00:44:18;19.00;99.90
52979;DHT22;51106;53.186;6.598;2022-08-24T00:46:25;19.00;99.90
52979;DHT22;51106;53.186;6.598;2022-08-24T00:48:31;18.90;99.90
52979;DHT22;51106;53.186;6.598;2022-08-24T00:50:40;18.80;99.90
52979;DHT22;51106;53.186;6.598;2022-08-24T00:52:50;18.90;99.90
52979;DHT22;51106;53.186;6.598;2022-08-24T00:55:06;18.80;99.90
52979;DHT22;51106;53.186;6.598;2022-08-24T00:57:10;18.80;99.90
52979;DHT22;51106;53.186;6.598;2022-08-24T00:59:21;18.80;99.90
52979;DHT22;51106;53.186;6.598;2022-08-24T01:01:25;18.80;99.90
52979;DHT22;51106;53.186;6.598;2022-08-24T01:03:30;18.80;99.90
52979;DHT22;51106;53.186;6.598;2022-08-24T01:05:34;18.70;99.90
52979;DHT22;51106;53.186;6.598;2022-08-24T01:07:38;18.70;99.90
52979;DHT22;51106;53.186;6.598;2022-08-24T01:09:40;18.70;99.90
52979;DHT22;51106;53.186;6.598;2022-08-24T01:11:42;18.70;99.90
52979;DHT22;51106;53.186;6.598;2022-08-24T01:13:46;18.60;99.90
52979;DHT22;51106;53.186;6.598;2022-08-24T01:15:50;18.60;99.90
52979;DHT22;51106;53.186;6.598;2022-08-24T01:17:53;18.60;99.90
52979;DHT22;51106;53.186;6.598;2022-08-24T01:20:15;18.60;99.90
52979;DHT22;51106;53.186;6.598;2022-08-24T01:24:30;18.60;99.90
52979;DHT22;51106;53.186;6.598;2022-08-24T01:26:43;18.70;99.90
52979;DHT22;51106;53.186;6.598;2022-08-24T01:28:47;18.70;99.90
52979;DHT22;51106;53.186;6.598;2022-08-24T01:30:52;18.70;99.90
52979;DHT22;51106;53.186;6.598;2022-08-24T01:33:01;18.70;99.90
52979;DHT22;51106;53.186;6.598;2022-08-24T01:35:04;18.70;99.90
52979;DHT22;51106;53.186;6.598;2022-08-24T01:37:09;18.70;99.90
52979;DHT22;51106;53.186;6.598;2022-08-24T01:39:23;18.70;99.90
52979;DHT22;51106;53.186;6.598;2022-08-24T01:41:25;18.70;99.90
52979;DHT22;51106;53.186;6.598;2022-08-24T01:43:30;18.70;99.90
52979;DHT22;51106;53.186;6.598;2022-08-24T01:45:37;18.70;99.90
52979;DHT22;51106;53.186;6.598;2022-08-24T01:47:39;18.60;99.90
52979;DHT22;51106;53.186;6.598;2022-08-24T01:49:45;18.70;99.90
52979;DHT22;51106;53.186;6.598;2022-08-24T01:51:47;18.70;99.90
52979;DHT22;51106;53.186;6.598;2022-08-24T01:53:49;18.60;99.90
52979;DHT22;51106;53.186;6.598;2022-08-24T01:55:51;18.60;99.90
52979;DHT22;51106;53.186;6.598;2022-08-24T01:57:53;18.50;99.90
52979;DHT22;51106;53.186;6.598;2022-08-24T01:59:55;18.50;99.90
52979;DHT22;51106;53.186;6.598;2022-08-24T02:02:05;18.40;99.90
52979;DHT22;51106;53.186;6.598;2022-08-24T02:04:10;18.50;99.90
52979;DHT22;51106;53.186;6.598;2022-08-24T02:06:18;18.60;99.90
52979;DHT22;51106;53.186;6.598;2022-08-24T02:08:20;18.40;99.90
52979;DHT22;51106;53.186;6.598;2022-08-24T02:10:24;18.40;99.90
52979;DHT22;51106;53.186;6.598;2022-08-24T02:12:27;18.40;99.90
52979;DHT22;51106;53.186;6.598;2022-08-24T02:14:29;18.40;99.90
52979;DHT22;51106;53.186;6.598;2022-08-24T02:16:34;18.40;99.90
52979;DHT22;51106;53.186;6.598;2022-08-24T02:18:37;18.40;99.90
52979;DHT22;51106;53.186;6.598;2022-08-24T02:20:43;18.30;99.90
52979;DHT22;51106;53.186;6.598;2022-08-24T02:22:47;18.30;99.90
52979;DHT22;51106;53.186;6.598;2022-08-24T02:24:50;18.30;99.90
52979;DHT22;51106;53.186;6.598;2022-08-24T02:26:52;18.20;99.90
52979;DHT22;51106;53.186;6.598;2022-08-24T02:28:54;18.10;99.90
52979;DHT22;51106;53.186;6.598;2022-08-24T02:31:01;18.10;99.90
52979;DHT22;51106;53.186;6.598;2022-08-24T02:33:06;18.10;99.90
52979;DHT22;51106;53.186;6.598;2022-08-24T02:35:10;18.10;99.90
52979;DHT22;51106;53.186;6.598;2022-08-24T02:37:12;18.00;99.90
52979;DHT22;51106;53.186;6.598;2022-08-24T02:39:15;18.00;99.90
52979;DHT22;51106;53.186;6.598;2022-08-24T02:41:17;18.00;99.90
52979;DHT22;51106;53.186;6.598;2022-08-24T02:43:19;18.00;99.90
52979;DHT22;51106;53.186;6.598;2022-08-24T02:45:21;17.90;99.90
52979;DHT22;51106;53.186;6.598;2022-08-24T02:47:23;17.90;99.90
52979;DHT22;51106;53.186;6.598;2022-08-24T02:49:39;17.90;99.90
52979;DHT22;51106;53.186;6.598;2022-08-24T02:51:44;17.90;99.90
52979;DHT22;51106;53.186;6.598;2022-08-24T02:53:46;17.90;99.90
52979;DHT22;51106;53.186;6.598;2022-08-24T02:55:49;17.90;99.90
52979;DHT22;51106;53.186;6.598;2022-08-24T02:57:51;17.90;99.90
52979;DHT22;51106;53.186;6.598;2022-08-24T02:59:53;17.90;99.90
52979;DHT22;51106;53.186;6.598;2022-08-24T03:01:55;17.90;99.90
52979;DHT22;51106;53.186;6.598;2022-08-24T03:03:57;17.80;99.90
52979;DHT22;51106;53.186;6.598;2022-08-24T03:06:00;17.80;99.90
52979;DHT22;51106;53.186;6.598;2022-08-24T03:08:03;17.80;99.90
52979;DHT22;51106;53.186;6.598;2022-08-24T03:10:06;17.80;99.90
52979;DHT22;51106;53.186;6.598;2022-08-24T03:12:08;17.70;99.90
52979;DHT22;51106;53.186;6.598;2022-08-24T03:14:10;17.70;99.90
52979;DHT22;51106;53.186;6.598;2022-08-24T03:16:13;17.70;99.90
52979;DHT22;51106;53.186;6.598;2022-08-24T03:18:15;17.70;99.90
52979;DHT22;51106;53.186;6.598;2022-08-24T03:20:20;17.80;99.90
52979;DHT22;51106;53.186;6.598;2022-08-24T03:22:22;17.80;99.90
52979;DHT22;51106;53.186;6.598;2022-08-24T03:24:24;17.70;99.90
52979;DHT22;51106;53.186;6.598;2022-08-24T03:26:26;17.70;99.90
52979;DHT22;51106;53.186;6.598;2022-08-24T03:28:28;17.70;99.90
52979;DHT22;51106;53.186;6.598;2022-08-24T03:30:30;17.70;99.90
52979;DHT22;51106;53.186;6.598;2022-08-24T03:32:33;17.70;99.90
52979;DHT22;51106;53.186;6.598;2022-08-24T03:34:36;17.70;99.90
52979;DHT22;51106;53.186;6.598;2022-08-24T03:36:39;17.70;99.90
52979;DHT22;51106;53.186;6.598;2022-08-24T03:38:41;17.70;99.90
52979;DHT22;51106;53.186;6.598;2022-08-24T03:40:44;17.70;99.90
52979;DHT22;51106;53.186;6.598;2022-08-24T03:42:46;17.70;99.90
52979;DHT22;51106;53.186;6.598;2022-08-24T03:44:50;17.70;99.90
52979;DHT22;51106;53.186;6.598;2022-08-24T03:46:52;17.70;99.90
52979;DHT22;51106;53.186;6.598;2022-08-24T03:48:56;17.70;99.90
52979;DHT22;51106;53.186;6.598;2022-08-24T03:50:59;17.70;99.90
52979;DHT22;51106;53.186;6.598;2022-08-24T03:53:00;17.60;99.90
52979;DHT22;51106;53.186;6.598;2022-08-24T03:55:04;17.60;99.90
52979;DHT22;51106;53.186;6.598;2022-08-24T03:57:07;17.50;99.90
52979;DHT22;51106;53.186;6.598;2022-08-24T03:59:09;17.50;99.90
52979;DHT22;51106;53.186;6.598;2022-08-24T04:01:11;17.40;99.90
52979;DHT22;51106;53.186;6.598;2022-08-24T04:03:14;17.40;99.90
52979;DHT22;51106;53.186;6.598;2022-08-24T04:05:16;17.40;99.90
52979;DHT22;51106;53.186;6.598;2022-08-24T04:07:19;17.30;99.90
52979;DHT22;51106;53.186;6.598;2022-08-24T04:09:21;17.30;99.90
52979;DHT22;51106;53.186;6.598;2022-08-24T04:11:27;17.20;99.90
52979;DHT22;51106;53.186;6.598;2022-08-24T04:13:30;17.30;99.90
52979;DHT22;51106;53.186;6.598;2022-08-24T04:15:32;17.30;99.90
52979;DHT22;51106;53.186;6.598;2022-08-24T04:17:36;17.30;99.90
52979;DHT22;51106;53.186;6.598;2022-08-24T04:19:38;17.30;99.90
52979;DHT22;51106;53.186;6.598;2022-08-24T04:21:58;17.40;99.90
52979;DHT22;51106;53.186;6.598;2022-08-24T04:24:02;17.20;99.90
52979;DHT22;51106;53.186;6.598;2022-08-24T04:26:04;17.20;99.90
52979;DHT22;51106;53.186;6.598;2022-08-24T04:28:06;17.10;99.90
52979;DHT22;51106;53.186;6.598;2022-08-24T04:30:09;17.10;99.90
52979;DHT22;51106;53.186;6.598;2022-08-24T04:32:15;17.00;99.90
52979;DHT22;51106;53.186;6.598;2022-08-24T04:34:17;17.00;99.90
52979;DHT22;51106;53.186;6.598;2022-08-24T04:36:21;17.00;99.90
52979;DHT22;51106;53.186;6.598;2022-08-24T04:38:23;17.00;99.90
52979;DHT22;51106;53.186;6.598;2022-08-24T04:40:25;17.10;99.90
52979;DHT22;51106;53.186;6.598;2022-08-24T04:42:27;17.00;99.90
52979;DHT22;51106;53.186;6.598;2022-08-24T04:44:29;17.10;99.90
52979;DHT22;51106;53.186;6.598;2022-08-24T04:46:32;17.10;99.90
52979;DHT22;51106;53.186;6.598;2022-08-24T04:48:35;17.10;99.90
52979;DHT22;51106;53.186;6.598;2022-08-24T04:50:38;17.20;99.90
52979;DHT22;51106;53.186;6.598;2022-08-24T04:52:41;17.20;99.90
52979;DHT22;51106;53.186;6.598;2022-08-24T04:54:43;17.20;99.90
52979;DHT22;51106;53.186;6.598;2022-08-24T04:56:45;17.20;99.90
52979;DHT22;51106;53.186;6.598;2022-08-24T04:58:48;17.20;99.90
52979;DHT22;51106;53.186;6.598;2022-08-24T05:00:51;17.20;99.90
52979;DHT22;51106;53.186;6.598;2022-08-24T05:02:53;17.30;99.90
52979;DHT22;51106;53.186;6.598;2022-08-24T05:04:56;17.20;99.90
52979;DHT22;51106;53.186;6.598;2022-08-24T05:06:58;17.40;99.90
52979;DHT22;51106;53.186;6.598;2022-08-24T05:09:03;17.40;99.90
52979;DHT22;51106;53.186;6.598;2022-08-24T05:11:05;17.40;99.90
52979;DHT22;51106;53.186;6.598;2022-08-24T05:13:11;17.50;99.90
52979;DHT22;51106;53.186;6.598;2022-08-24T05:15:13;17.50;99.90
52979;DHT22;51106;53.186;6.598;2022-08-24T05:17:17;17.50;99.90
52979;DHT22;51106;53.186;6.598;2022-08-24T05:19:19;17.60;99.90
52979;DHT22;51106;53.186;6.598;2022-08-24T05:21:23;17.60;99.90
52979;DHT22;51106;53.186;6.598;2022-08-24T05:23:25;17.60;99.90
52979;DHT22;51106;53.186;6.598;2022-08-24T05:25:28;17.70;99.90
52979;DHT22;51106;53.186;6.598;2022-08-24T05:27:32;17.70;99.90
52979;DHT22;51106;53.186;6.598;2022-08-24T05:29:34;17.70;99.90
52979;DHT22;51106;53.186;6.598;2022-08-24T05:31:43;17.70;99.90
52979;DHT22;51106;53.186;6.598;2022-08-24T05:33:46;17.80;99.90
52979;DHT22;51106;53.186;6.598;2022-08-24T05:35:48;17.80;99.90
52979;DHT22;51106;53.186;6.598;2022-08-24T05:37:50;17.90;99.90
52979;DHT22;51106;53.186;6.598;2022-08-24T05:39:53;18.00;99.90
52979;DHT22;51106;53.186;6.598;2022-08-24T05:41:55;17.90;99.90
52979;DHT22;51106;53.186;6.598;2022-08-24T05:43:57;18.00;99.90
52979;DHT22;51106;53.186;6.598;2022-08-24T05:45:59;18.10;99.90
52979;DHT22;51106;53.186;6.598;2022-08-24T05:48:02;18.20;99.90
52979;DHT22;51106;53.186;6.598;2022-08-24T05:50:06;18.20;99.90
52979;DHT22;51106;53.186;6.598;2022-08-24T05:52:08;18.30;99.90
52979;DHT22;51106;53.186;6.598;2022-08-24T05:54:10;18.30;99.90
52979;DHT22;51106;53.186;6.598;2022-08-24T05:56:16;18.40;99.90
52979;DHT22;51106;53.186;6.598;2022-08-24T05:58:19;18.50;99.90
52979;DHT22;51106;53.186;6.598;2022-08-24T06:00:31;18.60;99.90
52979;DHT22;51106;53.186;6.598;2022-08-24T06:02:34;18.70;99.90
52979;DHT22;51106;53.186;6.598;2022-08-24T06:04:36;18.90;99.90
52979;DHT22;51106;53.186;6.598;2022-08-24T06:06:41;19.00;99.90
52979;DHT22;51106;53.186;6.598;2022-08-24T06:08:45;19.10;99.90
52979;DHT22;51106;53.186;6.598;2022-08-24T06:10:49;19.20;99.90
52979;DHT22;51106;53.186;6.598;2022-08-24T06:12:51;19.30;99.90
52979;DHT22;51106;53.186;6.598;2022-08-24T06:14:53;19.40;99.90
52979;DHT22;51106;53.186;6.598;2022-08-24T06:16:55;19.50;99.90
52979;DHT22;51106;53.186;6.598;2022-08-24T06:18:57;19.70;99.90
52979;DHT22;51106;53.186;6.598;2022-08-24T06:21:04;19.70;99.90
52979;DHT22;51106;53.186;6.598;2022-08-24T06:23:07;19.90;99.90
52979;DHT22;51106;53.186;6.598;2022-08-24T06:25:09;20.10;99.90
52979;DHT22;51106;53.186;6.598;2022-08-24T06:27:29;20.20;99.90
52979;DHT22;51106;53.186;6.598;2022-08-24T06:29:32;20.30;99.90
52979;DHT22;51106;53.186;6.598;2022-08-24T06:31:40;20.50;99.90
52979;DHT22;51106;53.186;6.598;2022-08-24T06:33:43;20.60;99.90
52979;DHT22;51106;53.186;6.598;2022-08-24T06:35:46;20.80;99.90
52979;DHT22;51106;53.186;6.598;2022-08-24T06:37:48;20.90;99.90
52979;DHT22;51106;53.186;6.598;2022-08-24T06:39:54;21.10;99.90
52979;DHT22;51106;53.186;6.598;2022-08-24T06:41:57;21.30;99.90
52979;DHT22;51106;53.186;6.598;2022-08-24T06:44:05;21.40;99.90
52979;DHT22;51106;53.186;6.598;2022-08-24T06:46:07;21.60;99.90
52979;DHT22;51106;53.186;6.598;2022-08-24T06:48:09;21.70;99.90
52979;DHT22;51106;53.186;6.598;2022-08-24T06:50:11;21.90;99.90
52979;DHT22;51106;53.186;6.598;2022-08-24T06:52:14;22.00;99.90
52979;DHT22;51106;53.186;6.598;2022-08-24T06:54:17;22.20;99.90
52979;DHT22;51106;53.186;6.598;2022-08-24T06:56:21;22.30;99.90
52979;DHT22;51106;53.186;6.598;2022-08-24T06:58:25;22.40;99.90
52979;DHT22;51106;53.186;6.598;2022-08-24T07:00:28;22.60;99.90
52979;DHT22;51106;53.186;6.598;2022-08-24T07:02:31;22.70;99.90
52979;DHT22;51106;53.186;6.598;2022-08-24T07:04:34;22.80;99.90
52979;DHT22;51106;53.186;6.598;2022-08-24T07:06:37;23.00;99.90
52979;DHT22;51106;53.186;6.598;2022-08-24T07:08:41;23.10;99.90
52979;DHT22;51106;53.186;6.598;2022-08-24T07:10:43;23.20;99.90
52979;DHT22;51106;53.186;6.598;2022-08-24T07:12:45;23.30;99.90
52979;DHT22;51106;53.186;6.598;2022-08-24T07:14:47;23.40;99.90
52979;DHT22;51106;53.186;6.598;2022-08-24T07:16:51;23.50;99.90
52979;DHT22;51106;53.186;6.598;2022-08-24T07:18:55;23.60;99.90
52979;DHT22;51106;53.186;6.598;2022-08-24T07:20:59;23.70;99.80
52979;DHT22;51106;53.186;6.598;2022-08-24T07:23:05;23.70;99.00
52979;DHT22;51106;53.186;6.598;2022-08-24T07:25:08;23.90;98.90
52979;DHT22;51106;53.186;6.598;2022-08-24T07:27:11;24.00;98.70
52979;DHT22;51106;53.186;6.598;2022-08-24T07:29:14;24.10;98.50
52979;DHT22;51106;53.186;6.598;2022-08-24T07:31:38;24.10;98.30
52979;DHT22;51106;53.186;6.598;2022-08-24T07:33:41;24.10;97.80
52979;DHT22;51106;53.186;6.598;2022-08-24T07:35:43;24.20;97.50
52979;DHT22;51106;53.186;6.598;2022-08-24T07:37:45;24.20;97.10
52979;DHT22;51106;53.186;6.598;2022-08-24T07:39:47;24.20;96.70
52979;DHT22;51106;53.186;6.598;2022-08-24T07:41:49;24.00;96.50
52979;DHT22;51106;53.186;6.598;2022-08-24T07:44:11;24.10;96.30
52979;DHT22;51106;53.186;6.598;2022-08-24T07:46:14;24.00;96.70
52979;DHT22;51106;53.186;6.598;2022-08-24T07:48:17;24.00;97.10
52979;DHT22;51106;53.186;6.598;2022-08-24T07:50:19;24.10;97.20
52979;DHT22;51106;53.186;6.598;2022-08-24T07:52:21;24.20;96.90
52979;DHT22;51106;53.186;6.598;2022-08-24T07:54:23;24.20;96.60
52979;DHT22;51106;53.186;6.598;2022-08-24T07:56:25;24.30;96.30
52979;DHT22;51106;53.186;6.598;2022-08-24T07:58:30;24.30;96.40
52979;DHT22;51106;53.186;6.598;2022-08-24T08:00:32;24.40;96.30
52979;DHT22;51106;53.186;6.598;2022-08-24T08:02:35;24.40;95.40
52979;DHT22;51106;53.186;6.598;2022-08-24T08:04:39;24.50;95.40
52979;DHT22;51106;53.186;6.598;2022-08-24T08:06:42;24.60;95.10
52979;DHT22;51106;53.186;6.598;2022-08-24T08:08:44;24.60;95.00
52979;DHT22;51106;53.186;6.598;2022-08-24T08:10:46;24.70;94.80
52979;DHT22;51106;53.186;6.598;2022-08-24T08:12:49;24.70;94.50
52979;DHT22;51106;53.186;6.598;2022-08-24T08:14:51;24.80;94.40
52979;DHT22;51106;53.186;6.598;2022-08-24T08:16:54;24.80;94.30
52979;DHT22;51106;53.186;6.598;2022-08-24T08:18:55;24.90;94.00
52979;DHT22;51106;53.186;6.598;2022-08-24T08:21:13;24.90;93.70
52979;DHT22;51106;53.186;6.598;2022-08-24T08:23:34;24.90;93.10
52979;DHT22;51106;53.186;6.598;2022-08-24T08:25:56;25.00;93.50
52979;DHT22;51106;53.186;6.598;2022-08-24T08:28:03;25.10;93.80
52979;DHT22;51106;53.186;6.598;2022-08-24T08:30:25;25.20;93.60
52979;DHT22;51106;53.186;6.598;2022-08-24T08:32:28;25.30;93.50
52979;DHT22;51106;53.186;6.598;2022-08-24T08:34:30;25.40;93.40
52979;DHT22;51106;53.186;6.598;2022-08-24T08:36:32;25.40;92.90
52979;DHT22;51106;53.186;6.598;2022-08-24T08:38:36;25.40;91.60
52979;DHT22;51106;53.186;6.598;2022-08-24T08:43:05;25.50;92.60
52979;DHT22;51106;53.186;6.598;2022-08-24T08:45:14;25.60;92.30
52979;DHT22;51106;53.186;6.598;2022-08-24T08:59:29;26.50;90.50
52979;DHT22;51106;53.186;6.598;2022-08-24T09:01:41;26.60;90.10
52979;DHT22;51106;53.186;6.598;2022-08-24T09:04:02;26.70;90.00
52979;DHT22;51106;53.186;6.598;2022-08-24T09:13:19;27.10;88.00
52979;DHT22;51106;53.186;6.598;2022-08-24T09:15:35;27.20;88.00
52979;DHT22;51106;53.186;6.598;2022-08-24T09:27:41;27.80;85.10
52979;DHT22;51106;53.186;6.598;2022-08-24T09:36:17;28.10;83.10
52979;DHT22;51106;53.186;6.598;2022-08-24T10:07:49;28.90;73.40
52979;DHT22;51106;53.186;6.598;2022-08-24T10:10:28;28.90;74.90
52979;DHT22;51106;53.186;6.598;2022-08-24T10:15:10;29.00;74.20
52979;DHT22;51106;53.186;6.598;2022-08-24T10:22:51;29.20;72.00
52979;DHT22;51106;53.186;6.598;2022-08-24T10:36:48;29.60;71.70
52979;DHT22;51106;53.186;6.598;2022-08-24T10:53:23;30.00;66.40
52979;DHT22;51106;53.186;6.598;2022-08-24T10:55:29;30.10;65.40
52979;DHT22;51106;53.186;6.598;2022-08-24T10:57:39;30.20;66.70
52979;DHT22;51106;53.186;6.598;2022-08-24T11:00:04;30.30;63.10
52979;DHT22;51106;53.186;6.598;2022-08-24T11:02:11;30.30;63.60
52979;DHT22;51106;53.186;6.598;2022-08-24T11:04:31;30.30;65.20
52979;DHT22;51106;53.186;6.598;2022-08-24T11:06:39;30.20;66.00
52979;DHT22;51106;53.186;6.598;2022-08-24T11:08:52;30.20;66.80
52979;DHT22;51106;53.186;6.598;2022-08-24T11:11:13;30.30;65.70
52979;DHT22;51106;53.186;6.598;2022-08-24T11:13:25;29.90;63.00
52979;DHT22;51106;53.186;6.598;2022-08-24T11:15:28;29.80;66.60
52979;DHT22;51106;53.186;6.598;2022-08-24T11:17:31;29.60;63.40
52979;DHT22;51106;53.186;6.598;2022-08-24T11:19:34;29.50;64.90
52979;DHT22;51106;53.186;6.598;2022-08-24T11:21:45;29.70;69.00
52979;DHT22;51106;53.186;6.598;2022-08-24T11:23:48;30.00;68.80
52979;DHT22;51106;53.186;6.598;2022-08-24T11:26:18;30.30;62.50
52979;DHT22;51106;53.186;6.598;2022-08-24T11:28:35;30.50;59.60
52979;DHT22;51106;53.186;6.598;2022-08-24T11:30:40;30.60;62.90
52979;DHT22;51106;53.186;6.598;2022-08-24T11:32:44;30.60;62.90
52979;DHT22;51106;53.186;6.598;2022-08-24T11:34:47;30.50;61.80
52979;DHT22;51106;53.186;6.598;2022-08-24T11:36:49;30.60;62.30
52979;DHT22;51106;53.186;6.598;2022-08-24T11:41:25;31.00;58.70
52979;DHT22;51106;53.186;6.598;2022-08-24T11:46:17;31.10;59.70
52979;DHT22;51106;53.186;6.598;2022-08-24T11:51:43;30.80;56.20
52979;DHT22;51106;53.186;6.598;2022-08-24T11:58:51;30.50;54.00
52979;DHT22;51106;53.186;6.598;2022-08-24T12:01:12;30.40;55.90
52979;DHT22;51106;53.186;6.598;2022-08-24T12:12:39;31.10;58.00
52979;DHT22;51106;53.186;6.598;2022-08-24T12:19:47;30.60;54.60
52979;DHT22;51106;53.186;6.598;2022-08-24T12:21:53;30.40;55.60
52979;DHT22;51106;53.186;6.598;2022-08-24T12:24:06;30.20;55.50
52979;DHT22;51106;53.186;6.598;2022-08-24T12:28:39;29.90;56.80
52979;DHT22;51106;53.186;6.598;2022-08-24T12:30:41;29.80;58.60
52979;DHT22;51106;53.186;6.598;2022-08-24T12:32:55;29.80;60.80
52979;DHT22;51106;53.186;6.598;2022-08-24T12:35:05;29.90;59.70
52979;DHT22;51106;53.186;6.598;2022-08-24T12:39:40;30.20;60.90
52979;DHT22;51106;53.186;6.598;2022-08-24T12:44:02;30.10;57.80
52979;DHT22;51106;53.186;6.598;2022-08-24T12:46:12;30.10;60.10
52979;DHT22;51106;53.186;6.598;2022-08-24T12:52:59;30.40;56.70
52979;DHT22;51106;53.186;6.598;2022-08-24T12:59:57;31.10;57.50
52979;DHT22;51106;53.186;6.598;2022-08-24T13:04:44;30.80;54.90
52979;DHT22;51106;53.186;6.598;2022-08-24T13:07:07;30.90;55.80
52979;DHT22;51106;53.186;6.598;2022-08-24T13:09:33;31.10;56.60
52979;DHT22;51106;53.186;6.598;2022-08-24T13:11:36;31.20;54.20
52979;DHT22;51106;53.186;6.598;2022-08-24T13:16:48;31.40;55.20
52979;DHT22;51106;53.186;6.598;2022-08-24T13:19:15;31.50;50.60
52979;DHT22;51106;53.186;6.598;2022-08-24T13:21:37;31.60;52.30
52979;DHT22;51106;53.186;6.598;2022-08-24T13:23:39;31.60;51.70
52979;DHT22;51106;53.186;6.598;2022-08-24T13:28:03;31.50;50.50
52979;DHT22;51106;53.186;6.598;2022-08-24T13:30:19;31.20;47.40
52979;DHT22;51106;53.186;6.598;2022-08-24T13:32:38;30.90;48.70
52979;DHT22;51106;53.186;6.598;2022-08-24T13:34:45;30.90;50.10
52979;DHT22;51106;53.186;6.598;2022-08-24T13:37:09;30.90;52.10
52979;DHT22;51106;53.186;6.598;2022-08-24T13:42:21;30.90;50.40
52979;DHT22;51106;53.186;6.598;2022-08-24T13:47:10;30.90;54.30
52979;DHT22;51106;53.186;6.598;2022-08-24T13:54:01;31.20;50.40
52979;DHT22;51106;53.186;6.598;2022-08-24T13:56:23;31.10;47.20
52979;DHT22;51106;53.186;6.598;2022-08-24T14:00:56;30.90;47.70
52979;DHT22;51106;53.186;6.598;2022-08-24T14:03:18;30.80;47.20
52979;DHT22;51106;53.186;6.598;2022-08-24T14:17:09;30.90;52.10
52979;DHT22;51106;53.186;6.598;2022-08-24T14:24:29;30.50;49.80
52979;DHT22;51106;53.186;6.598;2022-08-24T14:28:37;30.20;53.30
52979;DHT22;51106;53.186;6.598;2022-08-24T14:30:42;30.10;54.30
52979;DHT22;51106;53.186;6.598;2022-08-24T14:35:08;29.90;54.30
52979;DHT22;51106;53.186;6.598;2022-08-24T14:39:44;29.80;57.80
52979;DHT22;51106;53.186;6.598;2022-08-24T14:44:43;29.60;59.70
52979;DHT22;51106;53.186;6.598;2022-08-24T14:46:49;29.70;60.00
52979;DHT22;51106;53.186;6.598;2022-08-24T14:49:13;29.70;61.10
52979;DHT22;51106;53.186;6.598;2022-08-24T15:01:43;29.60;61.40
52979;DHT22;51106;53.186;6.598;2022-08-24T15:08:31;29.70;63.20
52979;DHT22;51106;53.186;6.598;2022-08-24T15:10:49;29.60;62.20
52979;DHT22;51106;53.186;6.598;2022-08-24T15:13:01;29.50;64.10
52979;DHT22;51106;53.186;6.598;2022-08-24T15:15:13;29.40;64.00
52979;DHT22;51106;53.186;6.598;2022-08-24T15:17:22;29.30;63.90
52979;DHT22;51106;53.186;6.598;2022-08-24T15:19:41;29.20;64.60
52979;DHT22;51106;53.186;6.598;2022-08-24T15:22:01;29.20;64.20
52979;DHT22;51106;53.186;6.598;2022-08-24T15:26:36;29.10;67.70
52979;DHT22;51106;53.186;6.598;2022-08-24T15:28:50;29.10;69.20
52979;DHT22;51106;53.186;6.598;2022-08-24T15:31:04;29.10;68.90
52979;DHT22;51106;53.186;6.598;2022-08-24T15:33:13;29.10;69.20
52979;DHT22;51106;53.186;6.598;2022-08-24T15:35:27;29.10;68.90
52979;DHT22;51106;53.186;6.598;2022-08-24T15:37:31;29.00;69.50
52979;DHT22;51106;53.186;6.598;2022-08-24T15:39:34;28.90;70.60
52979;DHT22;51106;53.186;6.598;2022-08-24T15:41:38;28.70;71.50
52979;DHT22;51106;53.186;6.598;2022-08-24T15:45:57;28.40;74.90
52979;DHT22;51106;53.186;6.598;2022-08-24T15:48:05;28.30;75.40
52979;DHT22;51106;53.186;6.598;2022-08-24T15:50:28;28.20;75.00
52979;DHT22;51106;53.186;6.598;2022-08-24T15:53:04;28.00;74.00
52979;DHT22;51106;53.186;6.598;2022-08-24T15:57:36;28.00;75.70
52979;DHT22;51106;53.186;6.598;2022-08-24T16:01:55;28.00;75.60
52979;DHT22;51106;53.186;6.598;2022-08-24T16:04:38;28.10;76.30
52979;DHT22;51106;53.186;6.598;2022-08-24T16:06:46;28.00;76.60
52979;DHT22;51106;53.186;6.598;2022-08-24T16:11:27;28.00;77.80
52979;DHT22;51106;53.186;6.598;2022-08-24T16:13:30;28.10;77.30
52979;DHT22;51106;53.186;6.598;2022-08-24T16:15:33;28.10;76.60
52979;DHT22;51106;53.186;6.598;2022-08-24T16:17:39;28.00;76.20
52979;DHT22;51106;53.186;6.598;2022-08-24T16:19:48;28.10;76.00
52979;DHT22;51106;53.186;6.598;2022-08-24T16:22:00;28.00;75.80
52979;DHT22;51106;53.186;6.598;2022-08-24T16:24:10;28.10;76.40
52979;DHT22;51106;53.186;6.598;2022-08-24T16:30:41;28.10;76.50
52979;DHT22;51106;53.186;6.598;2022-08-24T16:32:54;28.00;76.60
52979;DHT22;51106;53.186;6.598;2022-08-24T16:37:17;27.90;77.40
52979;DHT22;51106;53.186;6.598;2022-08-24T16:39:20;27.90;78.00
52979;DHT22;51106;53.186;6.598;2022-08-24T16:41:23;27.80;77.70
52979;DHT22;51106;53.186;6.598;2022-08-24T16:43:25;27.70;78.00
52979;DHT22;51106;53.186;6.598;2022-08-24T16:45:29;27.60;78.40
52979;DHT22;51106;53.186;6.598;2022-08-24T16:47:37;27.50;79.30
52979;DHT22;51106;53.186;6.598;2022-08-24T16:49:38;27.50;79.50
52979;DHT22;51106;53.186;6.598;2022-08-24T16:51:41;27.30;79.80
52979;DHT22;51106;53.186;6.598;2022-08-24T16:53:46;27.30;80.80
52979;DHT22;51106;53.186;6.598;2022-08-24T16:55:48;27.20;81.30
52979;DHT22;51106;53.186;6.598;2022-08-24T16:57:50;27.10;82.00
52979;DHT22;51106;53.186;6.598;2022-08-24T16:59:52;27.00;82.30
52979;DHT22;51106;53.186;6.598;2022-08-24T17:01:54;26.90;83.10
52979;DHT22;51106;53.186;6.598;2022-08-24T17:03:56;26.80;84.10
52979;DHT22;51106;53.186;6.598;2022-08-24T17:05:58;26.80;84.20
52979;DHT22;51106;53.186;6.598;2022-08-24T17:08:00;26.70;84.60